createdAt,value
2018-08-22T11:32:55.521Z,99532.92
2018-08-22T11:35:23.691Z,99535.30
2018-08-22T11:37:51.268Z,99533.59
2018-08-22T11:40:18.864Z,99523.12
2018-08-22T11:42:46.463Z,99536.48
2018-08-22T11:45:14.015Z,99536.02
2018-08-22T11:47:41.554Z,99534.79
2018-08-22T11:50:09.162Z,99528.64
2018-08-22T11:52:36.715Z,99529.44
2018-08-22T11:55:04.383Z,99535.86
2018-08-22T11:57:31.936Z,99536.84
2018-08-22T11:59:59.494Z,99537.80
2018-08-22T12:02:27.035Z,99535.33
2018-08-22T12:04:54.628Z,99535.02
2018-08-22T12:07:22.207Z,99531.63
2018-08-22T12:09:49.756Z,99524.62
2018-08-22T12:12:17.324Z,99525.52
2018-08-22T12:14:44.985Z,99523.30
2018-08-22T12:17:12.606Z,99522.26
2018-08-22T12:19:40.126Z,99512.92
2018-08-22T12:22:07.754Z,99521.61
2018-08-22T12:24:35.293Z,99515.66
2018-08-22T12:27:02.799Z,99521.41
2018-08-22T12:29:30.373Z,99513.60
2018-08-22T12:31:57.933Z,99514.34
2018-08-22T12:34:25.505Z,99512.27
2018-08-22T12:36:53.008Z,99510.89
2018-08-22T12:39:20.591Z,99508.22
2018-08-22T12:41:48.123Z,99496.88
2018-08-22T12:44:15.650Z,99502.22
2018-08-22T12:46:43.207Z,99495.31
2018-08-22T12:49:10.738Z,99506.43
2018-08-22T12:51:38.298Z,99497.60
2018-08-22T12:54:05.849Z,99489.73
2018-08-22T12:56:33.404Z,99501.96
2018-08-22T12:59:00.973Z,99503.85
2018-08-22T13:01:28.516Z,99492.27
2018-08-22T13:03:56.099Z,99494.36
2018-08-22T13:06:23.662Z,99494.51
2018-08-22T13:08:51.186Z,99493.46
2018-08-22T13:11:18.761Z,99493.95
2018-08-22T13:13:46.331Z,99487.06
2018-08-22T13:16:13.902Z,99493.95
2018-08-22T13:18:41.429Z,99489.67
2018-08-22T13:21:08.987Z,99487.06
2018-08-22T13:23:36.653Z,99489.38
2018-08-22T13:26:04.300Z,99487.27
2018-08-22T13:28:31.834Z,99492.97
2018-08-22T13:30:59.400Z,99482.34
2018-08-22T13:33:27.142Z,99471.84
2018-08-22T13:35:54.681Z,99473.24
2018-08-22T13:38:22.390Z,99478.06
2018-08-22T13:40:49.912Z,99475.33
2018-08-22T13:43:17.476Z,99474.61
2018-08-22T13:45:45.073Z,99475.11
2018-08-22T13:48:12.692Z,99460.27
2018-08-22T13:50:40.210Z,99472.80
2018-08-22T13:53:07.801Z,99470.56
2018-08-22T13:55:35.500Z,99472.48
2018-08-22T13:58:03.113Z,99472.89
2018-08-22T14:00:30.744Z,99476.39
2018-08-22T14:02:58.287Z,99470.06
2018-08-22T14:05:26.002Z,99474.61
2018-08-22T14:07:53.568Z,99472.35
2018-08-22T14:10:21.157Z,99465.59
2018-08-22T14:12:48.672Z,99472.02
2018-08-22T14:15:16.376Z,99466.87
2018-08-22T14:17:43.924Z,99461.83
2018-08-22T14:20:11.492Z,99458.42
2018-08-22T14:22:39.045Z,99459.23
2018-08-22T14:25:06.645Z,99457.95
2018-08-22T14:27:34.330Z,99454.19
2018-08-22T14:30:01.971Z,99456.71
2018-08-22T14:32:29.555Z,99454.68
2018-08-22T14:34:57.143Z,99457.79
2018-08-22T14:37:24.686Z,99452.95
2018-08-22T14:39:52.259Z,99455.32
2018-08-22T14:42:19.843Z,99456.21
2018-08-22T14:44:47.384Z,99463.25
2018-08-22T14:47:15.183Z,99456.92
2018-08-22T14:49:42.881Z,99457.05
2018-08-22T14:52:10.449Z,99453.65
2018-08-22T14:54:38.052Z,99449.28
2018-08-22T14:57:05.579Z,99448.27
2018-08-22T14:59:33.367Z,99450.23
2018-08-22T15:02:01.038Z,99452.86
2018-08-22T15:04:28.968Z,99448.06
2018-08-22T15:06:56.673Z,99446.09
2018-08-22T15:09:24.447Z,99452.73
2018-08-22T15:11:52.170Z,99455.89
2018-08-22T15:14:19.726Z,99443.52
2018-08-22T15:16:47.440Z,99447.13
2018-08-22T15:19:15.038Z,99450.10
2018-08-22T15:21:42.707Z,99440.14
2018-08-22T15:24:10.331Z,99435.98
2018-08-22T15:26:38.036Z,99442.64
2018-08-22T15:29:05.665Z,99437.13
2018-08-22T15:31:33.223Z,99433.73
2018-08-22T15:34:00.932Z,99434.44
2018-08-22T15:36:28.522Z,99436.00
2018-08-22T15:38:56.035Z,99432.76
2018-08-22T15:41:23.622Z,99434.20
2018-08-22T15:43:51.204Z,99432.66
2018-08-22T15:46:18.724Z,99427.05
2018-08-22T15:48:46.263Z,99428.44
2018-08-22T15:51:13.848Z,99424.86
2018-08-22T15:53:41.389Z,99428.14
2018-08-22T15:56:08.970Z,99433.27
2018-08-22T15:58:36.697Z,99424.32
2018-08-22T16:01:04.368Z,99423.04
2018-08-22T16:03:31.889Z,99421.63
2018-08-22T16:06:00.421Z,99419.52
2018-08-22T16:08:28.002Z,99427.48
2018-08-22T16:10:55.546Z,99422.73
2018-08-22T16:13:23.260Z,99417.16
2018-08-22T16:15:50.837Z,99407.73
2018-08-22T16:18:18.441Z,99410.37
2018-08-22T16:20:46.247Z,99411.31
2018-08-22T16:23:13.824Z,99410.90
2018-08-22T16:25:41.352Z,99411.31
2018-08-22T16:28:08.916Z,99409.55
2018-08-22T16:30:36.522Z,99403.95
2018-08-22T16:33:04.226Z,99400.30
2018-08-22T16:35:31.761Z,99402.58
2018-08-22T16:37:59.295Z,99401.02
2018-08-22T16:40:26.855Z,99400.82
2018-08-22T16:42:54.368Z,99394.30
2018-08-22T16:45:22.110Z,99399.87
2018-08-22T16:47:49.635Z,99396.37
2018-08-22T16:50:17.198Z,99398.67
2018-08-22T16:52:44.741Z,99394.25
2018-08-22T16:55:12.409Z,99402.30
2018-08-22T16:57:39.961Z,99395.98
2018-08-22T17:00:07.525Z,99392.18
2018-08-22T17:02:35.117Z,99400.13
2018-08-22T17:05:02.653Z,99395.03
2018-08-22T17:07:30.203Z,99404.66
2018-08-22T17:09:57.762Z,99398.08
2018-08-22T17:12:25.359Z,99397.02
2018-08-22T17:14:52.893Z,99394.92
2018-08-22T17:17:20.584Z,99396.73
2018-08-22T17:19:48.111Z,99392.21
2018-08-22T17:22:15.716Z,99392.20
2018-08-22T17:24:43.244Z,99392.88
2018-08-22T17:27:10.820Z,99395.66
2018-08-22T17:29:38.413Z,99399.13
2018-08-22T17:32:06.011Z,99399.47
2018-08-22T17:34:33.527Z,99395.81
2018-08-22T17:37:01.121Z,99394.81
2018-08-22T17:39:28.687Z,99392.84
2018-08-22T17:41:56.228Z,99395.27
2018-08-22T17:44:23.808Z,99394.08
2018-08-22T17:49:24.725Z,99392.37
2018-08-22T17:51:53.201Z,99401.66
2018-08-22T17:54:20.758Z,99400.15
2018-08-22T17:56:48.350Z,99406.19
2018-08-22T17:59:15.925Z,99401.20
2018-08-22T18:01:43.514Z,99406.80
2018-08-22T18:04:11.632Z,99412.34
2018-08-22T18:06:39.437Z,99412.20
2018-08-22T18:09:07.570Z,99411.23
2018-08-22T18:11:35.429Z,99418.69
2018-08-22T18:14:04.209Z,99409.64
2018-08-22T18:16:32.475Z,99414.50
2018-08-22T18:19:04.458Z,99416.06
2018-08-22T18:21:32.666Z,99425.52
2018-08-22T18:24:01.391Z,99423.55
2018-08-22T18:26:28.983Z,99426.38
2018-08-22T18:28:56.807Z,99426.92
2018-08-22T18:31:24.434Z,99430.85
2018-08-22T18:34:04.228Z,99428.99
2018-08-22T18:36:31.914Z,99430.50
2018-08-22T18:39:00.331Z,99432.50
2018-08-22T18:41:27.869Z,99432.84
2018-08-22T18:43:55.383Z,99441.02
2018-08-22T18:46:22.976Z,99438.09
2018-08-22T18:48:50.514Z,99440.86
2018-08-22T18:51:19.148Z,99442.36
2018-08-22T18:53:47.792Z,99448.16
2018-08-22T18:56:19.954Z,99449.20
2018-08-22T18:58:49.838Z,99448.69
2018-08-22T19:01:21.550Z,99448.94
2018-08-22T19:03:50.999Z,99452.50
2018-08-22T19:06:19.056Z,99456.16
2018-08-22T19:08:46.589Z,99459.05
2018-08-22T19:11:14.130Z,99465.45
2018-08-22T19:13:41.914Z,99473.78
2018-08-22T19:16:09.489Z,99470.79
2018-08-22T19:18:37.099Z,99478.91
2018-08-22T19:21:04.638Z,99474.42
2018-08-22T19:23:32.610Z,99475.05
2018-08-22T19:26:00.155Z,99484.95
2018-08-22T19:28:27.757Z,99480.84
2018-08-22T19:30:55.427Z,99475.97
2018-08-22T19:33:29.376Z,99478.13
2018-08-22T19:35:58.695Z,99476.98
2018-08-22T19:38:26.924Z,99480.94
2018-08-22T19:40:54.571Z,99481.09
2018-08-22T19:43:22.126Z,99474.70
2018-08-22T19:45:49.716Z,99478.09
2018-08-22T19:48:17.299Z,99482.22
2018-08-22T19:50:44.842Z,99477.83
2018-08-22T19:53:12.746Z,99480.61
2018-08-22T19:55:43.340Z,99479.73
2018-08-22T19:58:14.447Z,99478.83
2018-08-22T20:00:42.256Z,99477.94
2018-08-22T20:03:10.114Z,99479.05
2018-08-22T20:05:37.643Z,99474.73
2018-08-22T20:08:05.522Z,99474.48
2018-08-22T20:10:33.067Z,99476.92
2018-08-22T20:13:00.643Z,99477.39
2018-08-22T20:15:31.890Z,99480.83
2018-08-22T20:18:01.043Z,99471.70
2018-08-22T20:20:32.037Z,99475.91
2018-08-22T20:23:01.273Z,99471.88
2018-08-22T20:25:35.231Z,99474.19
2018-08-22T20:28:03.067Z,99478.02
2018-08-22T20:30:30.818Z,99478.94
2018-08-22T20:32:59.237Z,99482.07
2018-08-22T20:35:28.796Z,99487.31
2018-08-22T20:37:56.475Z,99487.86
2018-08-22T20:40:24.299Z,99490.83
2018-08-22T20:42:52.636Z,99492.62
2018-08-22T20:45:20.480Z,99494.37
2018-08-22T20:47:48.100Z,99500.74
2018-08-22T20:50:15.678Z,99501.45
2018-08-22T20:52:43.954Z,99498.76
2018-08-22T20:55:11.648Z,99502.45
2018-08-22T20:57:39.394Z,99501.14
2018-08-22T21:00:08.798Z,99503.53
2018-08-22T21:02:38.368Z,99498.94
2018-08-22T21:05:07.037Z,99511.72
2018-08-22T21:07:36.651Z,99502.19
2018-08-22T21:10:04.682Z,99505.75
2018-08-22T21:12:32.232Z,99501.88
2018-08-22T21:15:00.140Z,99501.67
2018-08-22T21:17:28.548Z,99501.98
2018-08-22T21:19:56.113Z,99504.82
2018-08-22T21:22:26.653Z,99505.02
2018-08-22T21:24:57.890Z,99510.56
2018-08-22T21:27:28.708Z,99512.03
2018-08-22T21:29:56.240Z,99513.09
2018-08-22T21:32:23.817Z,99509.02
2018-08-22T21:34:59.624Z,99504.31
2018-08-22T21:37:33.102Z,99509.21
2018-08-22T21:40:02.212Z,99506.69
2018-08-22T21:42:30.203Z,99517.12
2018-08-22T21:44:58.242Z,99512.13
2018-08-22T21:47:25.835Z,99510.69
2018-08-22T21:49:53.500Z,99511.41
2018-08-22T21:52:21.265Z,99511.01
2018-08-22T21:54:49.008Z,99516.98
2018-08-22T21:57:16.585Z,99502.78
2018-08-22T21:59:44.314Z,99507.56
2018-08-22T22:02:12.791Z,99515.36
2018-08-22T22:04:41.083Z,99507.42
2018-08-22T22:07:09.074Z,99504.59
2018-08-22T22:09:37.139Z,99512.33
2018-08-22T22:12:05.078Z,99511.27
2018-08-22T22:14:33.147Z,99507.27
2018-08-22T22:17:01.004Z,99506.52
2018-08-22T22:19:28.932Z,99517.65
2018-08-22T22:21:57.066Z,99509.41
2018-08-22T22:24:24.655Z,99507.67
2018-08-22T22:26:52.240Z,99514.67
2018-08-22T22:29:19.921Z,99511.96
2018-08-22T22:31:47.671Z,99505.48
2018-08-22T22:34:15.467Z,99501.02
2018-08-22T22:36:43.207Z,99503.67
2018-08-22T22:39:10.799Z,99507.65
2018-08-22T22:41:38.344Z,99507.34
2018-08-22T22:44:05.905Z,99509.97
2018-08-22T22:46:33.507Z,99510.75
2018-08-22T22:49:01.061Z,99513.62
2018-08-22T22:51:28.616Z,99514.63
